Time;durP1;ratioP1;P1;durP2;ratioP2;P2;SDS_P1;SDS_P2;PMS_P1;PMS_P2;Temp;Humidity;BMP_temperature;BMP_pressure;BME280_temperature;BME280_humidity;BME280_pressure;Samples;Min_cycle;Max_cycle;Signal;HPM_P1;HPM_P2
2022/06/13 00:00:30;;;;;;;16.95;6.47;;;12.90;99.90;;;;;;5070562;28;20055;-67
2022/06/13 00:02:56;;;;;;;14.57;6.18;;;12.90;99.90;;;;;;5062711;28;20506;-68
2022/06/13 00:05:22;;;;;;;12.02;6.30;;;12.80;99.90;;;;;;5079422;28;20044;-69
2022/06/13 00:07:48;;;;;;;12.35;6.10;;;12.80;99.90;;;;;;5078851;28;20032;-69
2022/06/13 00:10:14;;;;;;;16.45;6.00;;;12.70;99.90;;;;;;5071452;28;20446;-68
2022/06/13 00:12:42;;;;;;;14.98;6.45;;;12.70;99.90;;;;;;5069250;28;20052;-67
2022/06/13 00:15:11;;;;;;;13.88;5.95;;;12.70;99.90;;;;;;5071525;28;20044;-67
2022/06/13 00:17:36;;;;;;;13.32;5.93;;;12.70;99.90;;;;;;5071063;28;20041;-70
2022/06/13 00:20:05;;;;;;;12.38;6.10;;;12.70;99.90;;;;;;5071970;28;20048;-68
2022/06/13 00:22:31;;;;;;;13.38;6.32;;;12.60;99.90;;;;;;5073935;28;20039;-67
2022/06/13 00:24:57;;;;;;;15.88;6.28;;;12.40;99.90;;;;;;5080887;28;20055;-72
2022/06/13 00:27:23;;;;;;;20.30;7.18;;;12.60;99.90;;;;;;5074142;28;20054;-71
2022/06/13 00:29:50;;;;;;;16.35;6.90;;;12.50;99.90;;;;;;5050626;28;20040;-68
2022/06/13 00:32:16;;;;;;;17.42;6.80;;;12.50;99.90;;;;;;5054079;28;20044;-68
2022/06/13 00:34:44;;;;;;;17.23;6.75;;;12.50;99.90;;;;;;5072288;28;20441;-68
2022/06/13 00:37:10;;;;;;;20.20;6.82;;;12.40;99.90;;;;;;5071417;28;20036;-68
2022/06/13 00:39:36;;;;;;;16.88;6.85;;;12.40;99.90;;;;;;5054747;28;20052;-67
2022/06/13 00:42:02;;;;;;;13.55;6.60;;;12.40;99.90;;;;;;5070156;28;20473;-68
2022/06/13 00:44:35;;;;;;;16.33;6.68;;;12.40;99.90;;;;;;5055174;28;20049;-67
2022/06/13 00:47:02;;;;;;;11.68;5.80;;;12.40;99.90;;;;;;5071500;28;20400;-71
2022/06/13 00:49:38;;;;;;;15.15;6.63;;;12.30;99.90;;;;;;5054733;28;20447;-67
2022/06/13 00:52:13;;;;;;;16.85;6.57;;;12.20;99.90;;;;;;5070625;28;20100;-70
2022/06/13 00:54:41;;;;;;;16.42;7.20;;;12.10;99.90;;;;;;5066837;28;20078;-68
2022/06/13 00:57:14;;;;;;;14.93;7.03;;;12.10;99.90;;;;;;5080941;28;20051;-68
2022/06/13 00:59:42;;;;;;;14.77;6.72;;;12.00;99.90;;;;;;5072623;28;20101;-67
2022/06/13 01:02:09;;;;;;;17.35;6.95;;;11.90;99.90;;;;;;5067728;28;20435;-68
2022/06/13 01:04:36;;;;;;;15.77;6.47;;;12.00;99.90;;;;;;5058082;28;20048;-67
2022/06/13 01:07:03;;;;;;;18.48;6.10;;;12.00;99.90;;;;;;5055292;28;20061;-70
2022/06/13 01:12:15;;;;;;;16.88;6.43;;;12.10;99.90;;;;;;5075753;28;20044;-68
2022/06/13 01:14:53;;;;;;;16.98;6.03;;;12.20;99.90;;;;;;5058148;28;20044;-67
2022/06/13 01:17:55;;;;;;;13.18;5.70;;;12.20;99.90;;;;;;5074814;28;20040;-67
2022/06/13 01:20:46;;;;;;;16.00;6.00;;;12.30;99.90;;;;;;5044957;28;20444;-68
2022/06/13 01:23:34;;;;;;;14.10;6.38;;;12.40;99.90;;;;;;5072248;28;20051;-67
2022/06/13 01:26:25;;;;;;;15.73;6.30;;;12.50;99.90;;;;;;5072388;28;20048;-68
2022/06/13 01:29:41;;;;;;;13.43;6.13;;;12.50;99.90;;;;;;5070695;28;20131;-67
2022/06/13 01:32:16;;;;;;;16.23;6.45;;;12.50;99.90;;;;;;5047756;28;20480;-69
2022/06/13 01:35:02;;;;;;;18.42;7.35;;;12.60;99.90;;;;;;5073901;28;20491;-68
2022/06/13 01:37:48;;;;;;;20.42;6.57;;;12.60;99.90;;;;;;5051871;28;20044;-67
2022/06/13 01:40:27;;;;;;;13.60;6.32;;;12.50;99.90;;;;;;5066903;28;20047;-67
2022/06/13 01:42:59;;;;;;;13.18;5.85;;;12.50;99.90;;;;;;5068596;28;20438;-71
2022/06/13 01:45:34;;;;;;;18.45;6.63;;;12.50;99.90;;;;;;5057479;28;20047;-67
2022/06/13 01:48:06;;;;;;;16.80;6.82;;;12.50;99.90;;;;;;5074354;28;20036;-67
2022/06/13 01:51:12;;;;;;;15.25;7.05;;;12.40;99.90;;;;;;5049587;28;20047;-67
2022/06/13 01:54:14;;;;;;;14.98;6.32;;;12.40;99.90;;;;;;5048878;28;20541;-67
2022/06/13 01:56:50;;;;;;;14.65;6.53;;;12.40;99.90;;;;;;5053361;28;20477;-67
2022/06/13 01:59:28;;;;;;;15.93;7.50;;;12.40;99.90;;;;;;5058535;28;20559;-67
2022/06/13 02:02:07;;;;;;;20.60;6.63;;;12.50;99.90;;;;;;5051804;28;20049;-68
2022/06/13 02:04:38;;;;;;;21.08;6.85;;;12.50;99.90;;;;;;5056450;28;20495;-68
2022/06/13 02:07:14;;;;;;;19.67;6.80;;;12.40;99.90;;;;;;5058049;28;20045;-69
2022/06/13 02:09:46;;;;;;;17.58;6.60;;;12.40;99.90;;;;;;5075743;28;20055;-67
2022/06/13 02:12:15;;;;;;;19.83;6.75;;;12.40;99.90;;;;;;5073109;28;20106;-69
2022/06/13 02:14:51;;;;;;;12.18;6.90;;;12.40;99.90;;;;;;5055905;28;20037;-67
2022/06/13 02:17:19;;;;;;;17.35;7.13;;;12.50;99.90;;;;;;5055954;28;20091;-68
2022/06/13 02:20:30;;;;;;;17.90;7.03;;;12.50;99.90;;;;;;5058716;28;20028;-68
2022/06/13 02:23:00;;;;;;;16.45;7.20;;;12.60;99.90;;;;;;4968702;28;20054;-68
2022/06/13 02:25:33;;;;;;;22.95;7.80;;;12.60;99.90;;;;;;4953769;28;20082;-67
2022/06/13 02:28:11;;;;;;;19.20;7.70;;;12.60;99.90;;;;;;5023240;28;20392;-69
2022/06/13 02:30:44;;;;;;;15.48;6.85;;;12.70;99.90;;;;;;5053145;28;20072;-70
2022/06/13 02:33:24;;;;;;;15.80;7.57;;;12.70;99.90;;;;;;5040846;28;20127;-69
2022/06/13 02:35:56;;;;;;;14.35;6.82;;;12.70;99.90;;;;;;5056922;28;20045;-68
2022/06/13 02:38:53;;;;;;;18.60;7.53;;;12.70;99.90;;;;;;5060249;28;20036;-67
2022/06/13 02:41:23;;;;;;;22.33;8.07;;;12.70;99.90;;;;;;5029555;28;20053;-68
2022/06/13 02:43:51;;;;;;;17.73;7.40;;;12.70;99.90;;;;;;5063125;28;20047;-68
2022/06/13 02:46:19;;;;;;;15.15;7.10;;;12.60;99.90;;;;;;5058973;28;20113;-68
2022/06/13 02:48:56;;;;;;;20.50;7.95;;;12.70;99.90;;;;;;5057906;28;20127;-68
2022/06/13 02:51:54;;;;;;;22.40;7.60;;;12.70;99.90;;;;;;5042700;28;20064;-71
2022/06/13 02:54:34;;;;;;;20.08;7.40;;;12.70;99.90;;;;;;5052376;28;20070;-69
2022/06/13 02:57:25;;;;;;;17.50;7.05;;;12.80;99.90;;;;;;5054838;28;20047;-67
2022/06/13 03:00:23;;;;;;;20.83;7.43;;;12.80;99.90;;;;;;5090724;28;20485;-67
2022/06/13 03:03:10;;;;;;;24.52;7.90;;;12.80;99.90;;;;;;5072852;28;20059;-67
2022/06/13 03:05:46;;;;;;;20.08;7.82;;;12.80;99.90;;;;;;5070246;28;20032;-69
2022/06/13 03:08:31;;;;;;;20.63;8.27;;;12.80;99.90;;;;;;5068255;28;20036;-67
2022/06/13 03:11:13;;;;;;;19.33;7.75;;;12.80;99.90;;;;;;5053264;28;20035;-69
2022/06/13 03:13:57;;;;;;;21.33;7.63;;;12.80;99.90;;;;;;5069196;28;20048;-68
2022/06/13 03:16:50;;;;;;;20.00;7.68;;;12.90;99.90;;;;;;5053278;28;20055;-69
2022/06/13 03:19:22;;;;;;;18.95;7.40;;;12.90;99.90;;;;;;5070443;28;20044;-67
2022/06/13 03:21:59;;;;;;;17.20;7.88;;;12.80;99.90;;;;;;5069922;28;20422;-67
2022/06/13 03:24:40;;;;;;;17.73;7.93;;;12.80;99.90;;;;;;5055144;28;20403;-68
2022/06/13 03:27:17;;;;;;;20.02;7.55;;;12.90;99.90;;;;;;5070407;28;20380;-67
2022/06/13 03:29:50;;;;;;;22.77;7.90;;;12.90;99.90;;;;;;5071868;28;20112;-67
2022/06/13 03:32:31;;;;;;;19.05;7.65;;;12.80;99.90;;;;;;5054349;28;20047;-68
2022/06/13 03:35:01;;;;;;;17.48;7.68;;;12.90;99.90;;;;;;5074025;28;20520;-67
2022/06/13 03:37:36;;;;;;;20.98;7.65;;;12.90;99.90;;;;;;5075728;28;20047;-67
2022/06/13 03:40:15;;;;;;;21.05;8.15;;;12.90;99.90;;;;;;5074271;28;20082;-68
2022/06/13 03:42:57;;;;;;;20.67;8.10;;;12.90;99.90;;;;;;5069908;28;20090;-68
2022/06/13 03:45:34;;;;;;;20.50;8.23;;;12.90;99.90;;;;;;5070473;28;20500;-69
2022/06/13 03:48:09;;;;;;;20.42;8.15;;;12.90;99.90;;;;;;5052742;28;20056;-67
2022/06/13 03:50:47;;;;;;;20.63;8.43;;;12.90;99.90;;;;;;5054449;28;20052;-67
2022/06/13 03:54:01;;;;;;;20.77;7.85;;;12.90;99.90;;;;;;5035599;28;20146;-68
2022/06/13 03:56:42;;;;;;;18.27;7.50;;;12.90;99.90;;;;;;5029874;28;20477;-68
2022/06/13 03:59:20;;;;;;;18.85;7.57;;;12.90;99.90;;;;;;5046543;28;20045;-67
2022/06/13 04:01:59;;;;;;;18.25;7.38;;;13.00;99.90;;;;;;5041614;28;20041;-72
2022/06/13 04:04:32;;;;;;;20.77;7.88;;;13.00;99.90;;;;;;5042965;28;20055;-68
2022/06/13 04:07:00;;;;;;;18.02;6.80;;;13.00;99.90;;;;;;5031528;28;20064;-68
2022/06/13 04:09:32;;;;;;;18.27;7.97;;;13.00;99.90;;;;;;5045293;28;20045;-67
2022/06/13 04:12:20;;;;;;;19.40;7.40;;;13.00;99.90;;;;;;5045768;28;20080;-68
2022/06/13 04:15:27;;;;;;;13.68;7.00;;;13.10;99.90;;;;;;5046680;28;20178;-72
2022/06/13 04:18:09;;;;;;;18.40;7.32;;;13.10;99.90;;;;;;5047231;28;20037;-71
2022/06/13 04:20:35;;;;;;;;;;;13.10;99.90;;;;;;5052742;28;20036;-68
2022/06/13 04:23:25;;;;;;;17.52;7.28;;;13.20;99.90;;;;;;5050358;28;19924;-67
2022/06/13 04:26:03;;;;;;;16.50;7.00;;;13.20;99.90;;;;;;5062679;28;20397;-68
2022/06/13 04:28:42;;;;;;;19.05;7.18;;;13.20;99.90;;;;;;5046317;28;20097;-67
2022/06/13 04:31:10;;;;;;;15.75;6.63;;;13.30;99.90;;;;;;5060384;28;20044;-68
2022/06/13 04:33:53;;;;;;;16.05;7.00;;;13.30;99.90;;;;;;5051616;28;20126;-67
2022/06/13 04:36:24;;;;;;;15.68;7.25;;;13.40;99.90;;;;;;5052288;28;20131;-68
2022/06/13 04:38:54;;;;;;;19.13;7.25;;;13.40;99.90;;;;;;5045072;28;20045;-67
2022/06/13 04:41:26;;;;;;;17.35;7.22;;;13.50;99.90;;;;;;5045621;28;20033;-67
2022/06/13 04:43:56;;;;;;;18.67;7.35;;;13.50;99.90;;;;;;5045009;28;20037;-67
2022/06/13 04:46:25;;;;;;;16.90;7.00;;;13.50;99.90;;;;;;5045989;28;20143;-67
2022/06/13 04:48:54;;;;;;;15.90;7.15;;;13.50;99.90;;;;;;5046068;28;20040;-68
2022/06/13 04:51:41;;;;;;;13.82;6.55;;;13.50;99.90;;;;;;5045291;28;20075;-69
2022/06/13 04:54:16;;;;;;;18.60;6.60;;;13.50;99.90;;;;;;5047668;28;20041;-69
2022/06/13 04:56:43;;;;;;;15.40;6.72;;;13.60;99.90;;;;;;5051095;28;20049;-70
2022/06/13 04:59:14;;;;;;;17.55;6.50;;;13.60;99.90;;;;;;5050265;28;20072;-69
2022/06/13 05:01:47;;;;;;;16.65;6.30;;;13.70;99.90;;;;;;5051105;28;20385;-68
2022/06/13 05:04:16;;;;;;;17.80;5.72;;;13.80;99.90;;;;;;5047531;28;20152;-71
2022/06/13 05:06:54;;;;;;;15.98;5.13;;;13.90;99.90;;;;;;5061622;28;20087;-68
2022/06/13 05:09:33;;;;;;;14.52;5.00;;;13.90;99.90;;;;;;5029564;28;20053;-71
2022/06/13 05:12:19;;;;;;;13.38;5.03;;;14.00;99.90;;;;;;5045092;28;20119;-67
2022/06/13 05:15:07;;;;;;;10.05;4.40;;;14.10;99.90;;;;;;5045627;28;20115;-67
2022/06/13 05:17:55;;;;;;;11.13;4.47;;;14.20;99.90;;;;;;5046865;28;20373;-68
2022/06/13 05:21:08;;;;;;;9.88;4.63;;;14.30;99.90;;;;;;5046917;28;20072;-68
2022/06/13 05:23:40;;;;;;;10.52;4.10;;;14.30;99.90;;;;;;5046622;28;20036;-71
2022/06/13 05:26:07;;;;;;;12.00;4.63;;;14.30;99.90;;;;;;5046094;28;20069;-68
2022/06/13 05:28:40;;;;;;;10.80;4.20;;;14.40;99.90;;;;;;5029511;28;20053;-68
2022/06/13 05:31:24;;;;;;;9.13;3.60;;;14.40;99.90;;;;;;5029301;28;20064;-70
2022/06/13 05:33:51;;;;;;;6.18;2.67;;;14.50;99.90;;;;;;5028177;28;20804;-68
2022/06/13 05:36:23;;;;;;;11.25;3.30;;;14.60;99.90;;;;;;5029895;28;20049;-68
2022/06/13 05:38:59;;;;;;;8.77;2.92;;;14.70;99.90;;;;;;5045673;28;20131;-68
2022/06/13 05:41:25;;;;;;;6.68;2.47;;;14.80;99.90;;;;;;5044905;28;20178;-72
2022/06/13 05:43:51;;;;;;;8.27;2.78;;;14.80;99.90;;;;;;5046390;28;20503;-71
2022/06/13 05:46:30;;;;;;;6.95;2.60;;;14.80;99.90;;;;;;5046218;28;20052;-69
2022/06/13 05:48:57;;;;;;;7.78;2.75;;;14.80;99.90;;;;;;5043636;28;20091;-67
2022/06/13 05:51:23;;;;;;;7.55;2.30;;;14.80;99.90;;;;;;5045713;28;20053;-71
2022/06/13 05:53:49;;;;;;;6.45;2.17;;;14.70;99.90;;;;;;5057317;28;20057;-69
2022/06/13 05:56:15;;;;;;;5.05;2.03;;;14.70;99.90;;;;;;5056281;28;20036;-67
2022/06/13 05:58:41;;;;;;;8.30;2.05;;;14.70;99.90;;;;;;5056778;28;20171;-67
2022/06/13 06:01:07;;;;;;;4.60;2.30;;;14.70;99.90;;;;;;5033183;28;20133;-67
2022/06/13 06:03:33;;;;;;;5.80;1.70;;;14.80;99.90;;;;;;5034118;28;20064;-67
2022/06/13 06:06:01;;;;;;;6.75;2.30;;;14.90;99.90;;;;;;5051866;28;20066;-69
2022/06/13 06:08:45;;;;;;;5.03;2.08;;;15.00;99.90;;;;;;5076776;28;20040;-68
2022/06/13 06:11:11;;;;;;;7.00;2.13;;;15.20;99.90;;;;;;5053065;28;20057;-68
2022/06/13 06:13:36;;;;;;;7.20;2.22;;;15.30;99.90;;;;;;5057967;28;20044;-68
2022/06/13 06:16:03;;;;;;;7.10;2.42;;;15.40;99.90;;;;;;5060337;28;20041;-68
2022/06/13 06:18:30;;;;;;;4.85;2.17;;;15.50;99.90;;;;;;5057241;28;21036;-68
2022/06/13 06:20:57;;;;;;;5.90;1.80;;;15.60;99.90;;;;;;5056192;28;20045;-67
2022/06/13 06:23:23;;;;;;;5.80;1.88;;;15.60;99.90;;;;;;5042969;28;20761;-72
2022/06/13 06:25:50;;;;;;;4.85;1.70;;;15.70;99.90;;;;;;5036091;28;20040;-67
2022/06/13 06:28:24;;;;;;;6.32;1.73;;;15.60;99.90;;;;;;5023390;28;21019;-68
2022/06/13 06:30:56;;;;;;;7.28;1.67;;;15.70;99.90;;;;;;5056774;28;20718;-68
2022/06/13 06:33:23;;;;;;;7.05;1.63;;;15.70;99.90;;;;;;5057272;28;20063;-68
2022/06/13 06:35:50;;;;;;;4.57;1.38;;;15.60;99.90;;;;;;5055117;28;20529;-68
2022/06/13 06:38:16;;;;;;;5.60;1.23;;;15.50;99.90;;;;;;5022710;28;20497;-70
2022/06/13 06:40:42;;;;;;;4.05;1.13;;;15.60;99.90;;;;;;5055114;28;20048;-70
2022/06/13 06:43:09;;;;;;;3.85;1.15;;;15.80;99.90;;;;;;5054776;28;20056;-67
2022/06/13 06:45:35;;;;;;;7.22;1.50;;;16.00;99.90;;;;;;5055761;28;20037;-69
2022/06/13 06:48:01;;;;;;;3.35;1.10;;;16.20;99.90;;;;;;5048982;28;20473;-67
2022/06/13 06:50:34;;;;;;;7.05;1.42;;;16.10;99.90;;;;;;5029188;28;21136;-70
2022/06/13 06:53:00;;;;;;;6.85;1.40;;;16.20;99.90;;;;;;5039226;28;20071;-69
2022/06/13 07:01:03;;;;;;;4.47;1.40;;;16.50;99.90;;;;;;5068000;28;20419;-71
2022/06/13 07:03:29;;;;;;;6.30;1.40;;;16.10;99.90;;;;;;5066773;28;20551;-67
2022/06/13 07:05:55;;;;;;;7.30;1.35;;;15.90;99.90;;;;;;5049274;28;20397;-69
2022/06/13 07:08:21;;;;;;;3.40;1.33;;;15.60;99.90;;;;;;5048935;28;20057;-68
2022/06/13 07:10:49;;;;;;;5.32;1.02;;;15.40;99.90;;;;;;5069790;28;20055;-69
2022/06/13 07:13:17;;;;;;;3.80;1.02;;;15.10;99.90;;;;;;5049145;28;20098;-68
2022/06/13 07:15:44;;;;;;;7.22;1.05;;;15.00;99.90;;;;;;5069747;28;20044;-68
2022/06/13 07:18:10;;;;;;;3.10;0.90;;;15.00;99.90;;;;;;5068518;28;20037;-69
2022/06/13 07:20:36;;;;;;;1.65;0.90;;;15.00;99.90;;;;;;5067842;28;20491;-69
2022/06/13 07:23:03;;;;;;;3.15;0.90;;;15.00;99.90;;;;;;5047499;28;20404;-68
2022/06/13 07:25:30;;;;;;;2.13;0.77;;;15.20;99.90;;;;;;5064066;28;20048;-68
2022/06/13 07:27:57;;;;;;;1.75;1.25;;;15.70;99.90;;;;;;5048349;28;20429;-68
2022/06/13 07:30:26;;;;;;;3.45;0.77;;;15.60;99.90;;;;;;5050773;28;20095;-69
2022/06/13 07:32:54;;;;;;;2.85;0.93;;;15.40;99.90;;;;;;5050375;28;20044;-67
2022/06/13 07:35:23;;;;;;;3.05;1.17;;;15.50;99.90;;;;;;5067634;28;20036;-67
2022/06/13 07:40:36;;;;;;;3.05;1.00;;;15.80;99.90;;;;;;5066295;28;20036;-67
2022/06/13 07:43:03;;;;;;;2.28;1.17;;;16.20;99.90;;;;;;5066657;28;20049;-67
2022/06/13 07:45:34;;;;;;;3.83;1.10;;;16.20;99.90;;;;;;5067347;28;20040;-68
2022/06/13 07:48:00;;;;;;;3.35;1.05;;;16.20;99.90;;;;;;5067672;28;20032;-67
2022/06/13 07:50:28;;;;;;;3.17;1.00;;;16.00;99.90;;;;;;5066877;28;20050;-67
2022/06/13 07:52:54;;;;;;;5.38;1.30;;;15.80;99.90;;;;;;5042246;28;20049;-71
2022/06/13 07:55:22;;;;;;;4.10;1.30;;;15.50;99.90;;;;;;5047738;28;20049;-68
2022/06/13 07:57:48;;;;;;;4.07;1.20;;;15.50;99.90;;;;;;5053022;28;20377;-67
2022/06/13 08:00:32;;;;;;;7.15;1.30;;;15.40;99.90;;;;;;5052260;28;20045;-67
2022/06/13 08:03:00;;;;;;;4.35;1.20;;;15.30;99.90;;;;;;5052259;28;20045;-67
2022/06/13 08:05:28;;;;;;;3.35;1.35;;;15.40;99.90;;;;;;5048830;28;20080;-67
2022/06/13 08:07:54;;;;;;;6.93;1.40;;;15.60;99.90;;;;;;5052704;28;20049;-69
2022/06/13 08:10:20;;;;;;;5.43;1.48;;;16.00;99.90;;;;;;5051711;28;20041;-67
2022/06/13 08:12:46;;;;;;;5.95;1.40;;;16.40;99.90;;;;;;5050873;28;20090;-67
2022/06/13 08:15:13;;;;;;;6.22;1.40;;;16.30;99.90;;;;;;5049593;28;20418;-66
2022/06/13 08:17:40;;;;;;;8.30;1.50;;;16.40;99.90;;;;;;5032116;28;20075;-67
2022/06/13 08:20:10;;;;;;;4.45;1.80;;;16.40;99.90;;;;;;5048956;28;20048;-67
2022/06/13 08:22:48;;;;;;;7.45;1.75;;;16.10;99.90;;;;;;5052091;28;20060;-67
2022/06/13 08:25:26;;;;;;;9.80;1.70;;;16.00;99.90;;;;;;5032857;28;20508;-68
2022/06/13 08:27:53;;;;;;;3.92;1.70;;;16.00;99.90;;;;;;5050790;28;20052;-66
2022/06/13 08:30:19;;;;;;;9.13;2.10;;;16.00;99.90;;;;;;5034993;28;20052;-68
2022/06/13 08:32:46;;;;;;;8.65;1.70;;;16.10;99.90;;;;;;5031112;28;20128;-67
2022/06/13 08:35:14;;;;;;;6.18;1.48;;;16.00;99.90;;;;;;5034014;28;20056;-67
2022/06/13 08:37:40;;;;;;;5.53;1.60;;;16.20;99.90;;;;;;5051309;28;20045;-68
2022/06/13 08:40:09;;;;;;;6.45;1.33;;;16.30;99.90;;;;;;5046488;28;20040;-66
2022/06/13 08:42:59;;;;;;;6.97;1.60;;;16.50;99.90;;;;;;5045468;28;20103;-68
2022/06/13 08:45:30;;;;;;;4.90;1.17;;;17.10;99.90;;;;;;5034008;28;20049;-76
2022/06/13 08:48:12;;;;;;;6.05;1.27;;;17.40;99.90;;;;;;5051944;28;20041;-72
2022/06/13 08:50:41;;;;;;;5.30;1.10;;;17.70;99.90;;;;;;5050952;28;20417;-72
2022/06/13 08:53:31;;;;;;;7.32;1.90;;;18.00;99.90;;;;;;5034974;28;20057;-71
2022/06/13 08:56:07;;;;;;;7.18;1.60;;;18.00;99.90;;;;;;5058997;28;20133;-73
2022/06/13 08:58:51;;;;;;;3.00;0.98;;;18.00;99.90;;;;;;5070748;28;20037;-73
2022/06/13 09:01:40;;;;;;;6.32;1.10;;;18.00;99.90;;;;;;5043436;28;20380;-72
2022/06/13 09:04:15;;;;;;;4.72;1.10;;;18.10;99.90;;;;;;5058151;28;20552;-74
2022/06/13 09:07:12;;;;;;;3.78;1.05;;;17.50;99.90;;;;;;5071701;28;20048;-76
2022/06/13 09:09:47;;;;;;;7.90;1.20;;;17.20;99.90;;;;;;5070506;28;20052;-73
2022/06/13 09:12:21;;;;;;;3.50;0.90;;;17.00;99.90;;;;;;5051683;28;20052;-74
2022/06/13 09:14:57;;;;;;;4.60;1.33;;;17.10;99.90;;;;;;5040088;28;20542;-72
2022/06/13 09:17:34;;;;;;;5.85;1.10;;;17.70;99.90;;;;;;5071532;28;20040;-77
2022/06/13 09:20:25;;;;;;;3.53;0.98;;;18.20;99.90;;;;;;5041559;28;20045;-73
2022/06/13 09:23:17;;;;;;;5.68;1.30;;;18.20;99.90;;;;;;5063915;28;20067;-70
2022/06/13 09:25:52;;;;;;;3.50;0.82;;;17.80;99.90;;;;;;5069561;28;20520;-69
2022/06/13 09:28:35;;;;;;;4.28;1.00;;;17.60;99.90;;;;;;5068255;28;20392;-69
2022/06/13 09:31:09;;;;;;;5.40;0.95;;;17.70;99.90;;;;;;5051192;28;20461;-71
2022/06/13 09:33:52;;;;;;;2.80;1.35;;;18.10;99.90;;;;;;5066439;28;20041;-70
2022/06/13 09:36:29;;;;;;;4.60;0.90;;;18.30;99.90;;;;;;5070984;28;20051;-69
2022/06/13 09:39:08;;;;;;;5.10;0.80;;;18.20;99.90;;;;;;5070991;28;20523;-69
2022/06/13 09:41:55;;;;;;;3.13;0.98;;;18.30;99.90;;;;;;5069224;28;20036;-69
2022/06/13 09:44:33;;;;;;;5.63;1.20;;;18.30;99.90;;;;;;5049288;28;20048;-68
2022/06/13 09:47:15;;;;;;;3.20;0.80;;;18.70;99.90;;;;;;5063580;28;20044;-69
2022/06/13 09:49:53;;;;;;;3.15;1.10;;;18.30;99.90;;;;;;5069903;28;20114;-68
2022/06/13 09:52:26;;;;;;;3.08;1.00;;;18.70;99.90;;;;;;5072440;28;20434;-69
2022/06/13 09:55:10;;;;;;;7.45;0.90;;;18.70;99.90;;;;;;5074336;28;20562;-68
2022/06/13 09:57:50;;;;;;;6.22;0.80;;;18.70;99.90;;;;;;5074118;28;20490;-68
2022/06/13 10:00:26;;;;;;;5.75;1.00;;;18.80;99.90;;;;;;5072795;28;20044;-68
2022/06/13 10:03:22;;;;;;;5.15;1.00;;;18.30;99.90;;;;;;5066231;28;20044;-68
2022/06/13 10:06:00;;;;;;;4.55;0.90;;;18.40;99.90;;;;;;5057624;28;20048;-68
2022/06/13 10:08:44;;;;;;;2.55;1.05;;;18.80;99.90;;;;;;5057192;28;20104;-68
2022/06/13 10:11:48;;;;;;;3.03;1.02;;;19.10;99.90;;;;;;5073400;28;20040;-67
2022/06/13 10:14:23;;;;;;;6.30;1.05;;;19.20;99.90;;;;;;5042665;28;20161;-68
2022/06/13 10:16:58;;;;;;;7.22;1.13;;;18.80;99.90;;;;;;5073803;28;20152;-68
2022/06/13 10:19:27;;;;;;;3.45;1.02;;;18.80;99.90;;;;;;5056615;28;20400;-70
2022/06/13 10:22:11;;;;;;;4.22;1.10;;;19.10;99.90;;;;;;5073583;28;20169;-70
2022/06/13 10:25:02;;;;;;;4.28;1.23;;;19.00;99.90;;;;;;5071813;28;20044;-68
2022/06/13 10:27:52;;;;;;;;;;;18.70;99.90;;;;;;5057576;28;20469;-68
2022/06/13 10:31:08;;;;;;;6.60;1.20;;;18.80;99.90;;;;;;5063040;28;19973;-68
2022/06/13 10:33:53;;;;;;;3.92;1.20;;;19.00;99.90;;;;;;4995407;28;20095;-68
2022/06/13 10:36:45;;;;;;;4.50;1.20;;;18.90;99.90;;;;;;5008147;28;20068;-70
2022/06/13 10:39:14;;;;;;;7.60;1.40;;;18.80;99.90;;;;;;5059386;28;20055;-68
2022/06/13 10:41:46;;;;;;;5.57;1.40;;;18.40;99.90;;;;;;5072911;28;20040;-70
2022/06/13 10:44:14;;;;;;;6.30;1.42;;;18.10;99.90;;;;;;5071804;28;20088;-68
2022/06/13 10:46:47;;;;;;;7.25;1.30;;;17.80;99.90;;;;;;5072144;28;20043;-70
2022/06/13 10:49:17;;;;;;;7.05;1.52;;;18.10;99.90;;;;;;5073581;28;20718;-69
2022/06/13 10:51:45;;;;;;;5.20;1.40;;;18.20;99.90;;;;;;5044239;28;20155;-67
2022/06/13 10:54:23;;;;;;;5.05;1.25;;;18.00;99.90;;;;;;5071635;28;20056;-68
2022/06/13 10:56:53;;;;;;;3.63;1.00;;;17.80;99.90;;;;;;5069934;28;20112;-69
2022/06/13 10:59:25;;;;;;;5.65;1.50;;;17.90;99.90;;;;;;5060990;28;20058;-68
2022/06/13 11:01:58;;;;;;;4.97;1.00;;;17.90;99.90;;;;;;5057890;28;20388;-68
2022/06/13 11:04:24;;;;;;;9.43;1.60;;;18.50;99.90;;;;;;5067651;28;20044;-70
2022/06/13 11:06:53;;;;;;;6.10;1.30;;;19.40;99.90;;;;;;5074181;28;20078;-69
2022/06/13 11:09:45;;;;;;;7.00;1.50;;;19.70;99.90;;;;;;5077437;28;20058;-68
2022/06/13 11:12:23;;;;;;;6.22;1.48;;;19.60;99.90;;;;;;5076006;28;20052;-68
2022/06/13 11:23:45;;;;;;;5.55;1.17;;;19.50;99.90;;;;;;5094765;28;20055;-69
2022/06/13 11:28:56;;;;;;;5.22;1.27;;;19.40;99.90;;;;;;5062785;28;20048;-67
2022/06/13 11:31:26;;;;;;;7.28;1.60;;;19.30;99.90;;;;;;5076452;28;20051;-69
2022/06/13 11:33:53;;;;;;;9.13;1.73;;;19.50;99.90;;;;;;5076935;28;20115;-68
2022/06/13 11:36:19;;;;;;;6.35;1.60;;;19.70;99.90;;;;;;5043050;28;20042;-68
2022/06/13 11:38:56;;;;;;;9.90;1.80;;;19.90;99.90;;;;;;5057811;28;20028;-70
2022/06/13 11:41:23;;;;;;;7.15;1.63;;;19.90;99.90;;;;;;5070148;28;20040;-67
2022/06/13 11:44:01;;;;;;;7.20;1.83;;;19.70;99.90;;;;;;5076764;28;20040;-68
2022/06/13 11:46:27;;;;;;;8.50;1.35;;;19.80;99.90;;;;;;5059733;28;20500;-69
2022/06/13 11:48:55;;;;;;;6.43;1.40;;;19.90;99.90;;;;;;5075123;28;20044;-68
2022/06/13 11:51:24;;;;;;;10.23;1.70;;;19.90;99.90;;;;;;5074324;28;20412;-68
2022/06/13 11:53:57;;;;;;;6.50;1.50;;;19.90;99.10;;;;;;5059536;28;20183;-69
2022/06/13 11:56:29;;;;;;;7.13;1.98;;;19.80;99.90;;;;;;5076237;28;20504;-69
2022/06/13 11:59:00;;;;;;;8.38;1.75;;;19.90;99.90;;;;;;5075890;28;20439;-69
2022/06/13 12:01:35;;;;;;;13.50;1.73;;;19.50;99.90;;;;;;5053189;28;20044;-68
2022/06/13 12:04:14;;;;;;;8.05;1.60;;;19.30;99.90;;;;;;5063568;28;20302;-68
2022/06/13 12:06:49;;;;;;;6.78;1.45;;;19.00;99.90;;;;;;5059453;28;20127;-67
2022/06/13 12:09:21;;;;;;;8.50;1.65;;;19.50;99.90;;;;;;5074813;28;20044;-70
2022/06/13 12:12:00;;;;;;;5.45;1.45;;;20.40;99.90;;;;;;5057608;28;20503;-69
2022/06/13 12:14:32;;;;;;;6.63;1.30;;;20.70;99.90;;;;;;5046236;28;20072;-69
2022/06/13 12:17:17;;;;;;;4.80;1.20;;;20.40;98.80;;;;;;5046715;28;20074;-70
2022/06/13 12:20:03;;;;;;;9.63;1.20;;;20.30;97.20;;;;;;5059065;28;20055;-69
2022/06/13 12:22:48;;;;;;;7.82;1.27;;;20.40;99.20;;;;;;5074867;28;20177;-68
2022/06/13 12:25:36;;;;;;;5.05;1.00;;;19.80;97.60;;;;;;5075819;28;20044;-68
2022/06/13 12:28:09;;;;;;;4.32;1.10;;;20.30;96.10;;;;;;5075721;28;20047;-69
2022/06/13 12:30:36;;;;;;;4.32;1.02;;;20.60;96.60;;;;;;5074157;28;20092;-68
2022/06/13 12:33:25;;;;;;;4.15;0.98;;;20.70;95.60;;;;;;5071576;28;20394;-68
2022/06/13 12:36:18;;;;;;;3.70;1.08;;;20.70;93.20;;;;;;5075563;28;20044;-68
2022/06/13 12:39:01;;;;;;;3.08;0.85;;;20.40;87.80;;;;;;5075290;28;20083;-68
2022/06/13 12:42:09;;;;;;;4.88;1.10;;;20.90;91.90;;;;;;5049565;28;20127;-68
2022/06/13 12:44:47;;;;;;;4.03;0.98;;;21.60;91.60;;;;;;5036412;28;20446;-69
2022/06/13 12:47:32;;;;;;;5.15;0.82;;;20.90;89.60;;;;;;5075098;28;20050;-68
2022/06/13 12:50:32;;;;;;;4.88;0.90;;;20.70;90.20;;;;;;5075212;28;20048;-69
2022/06/13 12:53:18;;;;;;;5.07;0.90;;;21.20;85.00;;;;;;5072858;28;20062;-68
2022/06/13 12:55:53;;;;;;;2.78;0.90;;;21.00;83.20;;;;;;5018438;28;20056;-69
2022/06/13 12:58:37;;;;;;;4.68;1.00;;;20.90;82.00;;;;;;5075359;28;20040;-68
2022/06/13 13:01:18;;;;;;;3.65;1.00;;;21.40;86.40;;;;;;5074690;28;20042;-68
2022/06/13 13:04:08;;;;;;;4.30;1.05;;;21.40;83.00;;;;;;5066714;28;20046;-68
2022/06/13 13:06:42;;;;;;;3.80;0.90;;;20.80;82.40;;;;;;5075126;28;20115;-69
2022/06/13 13:09:30;;;;;;;4.40;0.90;;;20.40;82.70;;;;;;5049176;28;20040;-69
2022/06/13 13:12:18;;;;;;;6.32;1.17;;;20.10;84.00;;;;;;5072926;28;20397;-68
2022/06/13 13:15:15;;;;;;;4.97;1.00;;;20.60;85.20;;;;;;5073203;28;20082;-68
2022/06/13 13:17:59;;;;;;;4.88;1.00;;;20.40;81.00;;;;;;5074802;28;20067;-71
2022/06/13 13:20:31;;;;;;;5.55;1.13;;;21.50;86.80;;;;;;5069007;28;20052;-69
2022/06/13 13:23:33;;;;;;;4.43;0.80;;;22.10;85.70;;;;;;5071908;28;20048;-70
2022/06/13 13:26:15;;;;;;;4.82;1.02;;;22.40;77.80;;;;;;5073179;28;20041;-68
2022/06/13 13:29:02;;;;;;;5.90;0.95;;;22.00;78.80;;;;;;5069009;28;20131;-68
2022/06/13 13:31:52;;;;;;;3.25;1.13;;;22.20;74.90;;;;;;5068974;28;20040;-68
2022/06/13 13:34:20;;;;;;;4.32;1.10;;;22.60;76.30;;;;;;5053190;28;20051;-68
2022/06/13 13:37:23;;;;;;;4.30;0.93;;;23.00;77.60;;;;;;5056557;28;20962;-68
2022/06/13 13:39:59;;;;;;;3.95;1.38;;;23.00;71.50;;;;;;5071431;28;20031;-68
2022/06/13 13:42:47;;;;;;;4.85;1.17;;;22.80;70.80;;;;;;5068251;28;20399;-69
2022/06/13 13:46:05;;;;;;;4.22;0.90;;;23.10;70.80;;;;;;5058123;28;20124;-68
2022/06/13 13:48:47;;;;;;;6.88;1.00;;;22.20;69.50;;;;;;5050192;28;20373;-73
2022/06/13 13:51:37;;;;;;;4.30;1.02;;;21.70;67.70;;;;;;5066354;28;20156;-70